createdAt,value
2022-08-15T00:00:25.673Z,100857.66
2022-08-15T00:03:01.095Z,100851.72
2022-08-15T00:05:30.593Z,100854.78
2022-08-15T00:08:00.130Z,100846.56
2022-08-15T00:11:01.766Z,100850.72
2022-08-15T00:13:25.755Z,100858.03
2022-08-15T00:15:57.828Z,100850.09
2022-08-15T00:18:27.865Z,100860.31
2022-08-15T00:20:55.178Z,100846.19
2022-08-15T00:23:27.816Z,100850.91
2022-08-15T00:25:59.534Z,100856.03
2022-08-15T00:28:46.274Z,100856.84
2022-08-15T00:31:40.880Z,100862.31
2022-08-15T00:34:39.648Z,100859.66
2022-08-15T00:36:58.618Z,100856.47
2022-08-15T00:39:26.643Z,100849.13
2022-08-15T00:42:01.525Z,100857.34
2022-08-15T00:45:00.775Z,100857.38
2022-08-15T00:47:31.562Z,100859.06
2022-08-15T00:50:06.155Z,100858.69
2022-08-15T00:52:40.072Z,100856.03
2022-08-15T00:55:12.019Z,100859.72
2022-08-15T00:57:58.912Z,100859.13
2022-08-15T01:00:34.329Z,100860.97
2022-08-15T01:03:14.465Z,100865.25
2022-08-15T01:05:47.778Z,100864.44
2022-08-15T01:08:19.224Z,100866.06
2022-08-15T01:10:59.612Z,100864.03
2022-08-15T01:14:04.457Z,100864.44
2022-08-15T01:16:32.872Z,100851.53
2022-08-15T01:19:26.223Z,100858.75
2022-08-15T01:22:02.591Z,100863.63
2022-08-15T01:25:15.945Z,100856.31
2022-08-15T01:28:01.214Z,100851.00
2022-08-15T01:31:00.795Z,100840.78
2022-08-15T01:33:18.784Z,100847.91
2022-08-15T01:35:53.485Z,100843.81
2022-08-15T01:38:37.194Z,100838.06
2022-08-15T01:41:36.131Z,100841.09
2022-08-15T01:44:49.710Z,100840.66
2022-08-15T01:47:57.702Z,100840.25
2022-08-15T01:50:37.754Z,100837.16
2022-08-15T01:53:17.034Z,100851.22
2022-08-15T01:55:54.733Z,100849.81
2022-08-15T01:58:23.210Z,100855.44
2022-08-15T02:00:58.989Z,100852.78
2022-08-15T02:03:49.448Z,100855.00
2022-08-15T02:06:26.033Z,100837.13
2022-08-15T02:09:37.478Z,100841.25
2022-08-15T02:12:00.950Z,100839.56
2022-08-15T02:14:38.906Z,100839.63
2022-08-15T02:17:07.129Z,100836.31
2022-08-15T02:19:44.941Z,100838.38
2022-08-15T02:22:25.790Z,100824.84
2022-08-15T02:24:59.049Z,100825.09
2022-08-15T02:27:32.454Z,100830.16
2022-08-15T02:30:01.851Z,100827.50
2022-08-15T02:32:30.530Z,100822.56
2022-08-15T02:34:58.930Z,100814.00
2022-08-15T02:37:25.733Z,100817.66
2022-08-15T02:39:57.768Z,100819.88
2022-08-15T02:42:28.801Z,100829.22
2022-08-15T02:44:57.191Z,100827.31
2022-08-15T02:47:24.935Z,100827.50
2022-08-15T02:49:53.428Z,100828.22
2022-08-15T02:52:21.672Z,100826.97
2022-08-15T02:54:59.618Z,100818.22
2022-08-15T02:57:29.114Z,100812.25
2022-08-15T02:59:56.687Z,100815.31
2022-08-15T03:02:30.927Z,100809.81
2022-08-15T03:05:00.274Z,100794.28
2022-08-15T03:07:27.696Z,100796.50
2022-08-15T03:09:56.524Z,100804.06
2022-08-15T03:12:32.054Z,100802.25
2022-08-15T03:15:02.515Z,100803.44
2022-08-15T03:17:35.007Z,100809.16
2022-08-15T03:20:05.396Z,100798.78
2022-08-15T03:22:47.126Z,100800.78
2022-08-15T03:25:15.353Z,100804.66
2022-08-15T03:27:42.419Z,100810.13
2022-08-15T03:30:19.216Z,100808.03
2022-08-15T03:32:53.527Z,100806.66
2022-08-15T03:35:22.153Z,100801.63
2022-08-15T03:38:00.135Z,100798.78
2022-08-15T03:40:29.275Z,100787.16
2022-08-15T03:43:17.782Z,100793.91
2022-08-15T03:45:49.974Z,100797.81
2022-08-15T03:48:21.118Z,100789.75
2022-08-15T03:50:57.188Z,100783.72
2022-08-15T03:53:25.522Z,100786.84
2022-08-15T03:55:56.136Z,100778.19
2022-08-15T03:58:35.569Z,100775.22
2022-08-15T04:01:05.641Z,100770.41
2022-08-15T04:03:33.695Z,100781.91
2022-08-15T04:06:06.729Z,100781.59
2022-08-15T04:09:04.280Z,100773.91
2022-08-15T04:11:35.610Z,100785.28
2022-08-15T04:14:32.645Z,100789.19
2022-08-15T04:17:03.299Z,100795.59
2022-08-15T04:19:46.368Z,100793.56
2022-08-15T04:22:28.122Z,100794.84
2022-08-15T04:25:12.638Z,100790.38
2022-08-15T04:27:52.040Z,100795.06
2022-08-15T04:30:21.480Z,100792.81
2022-08-15T04:32:59.228Z,100797.25
2022-08-15T04:35:30.098Z,100782.72
2022-08-15T04:37:59.040Z,100786.13
2022-08-15T04:41:17.453Z,100784.56
2022-08-15T04:43:13.936Z,100767.84
2022-08-15T04:45:41.483Z,100765.47
2022-08-15T04:48:19.724Z,100759.75
2022-08-15T04:50:49.477Z,100763.47
2022-08-15T04:53:16.816Z,100766.69
2022-08-15T04:55:50.153Z,100761.31
2022-08-15T04:58:42.950Z,100754.38
2022-08-15T05:01:12.611Z,100742.75
2022-08-15T05:03:40.949Z,100749.75
2022-08-15T05:06:29.107Z,100744.56
2022-08-15T05:08:56.087Z,100744.25
2022-08-15T05:11:22.935Z,100738.78
2022-08-15T05:13:49.874Z,100742.59
2022-08-15T05:16:16.774Z,100744.66
2022-08-15T05:18:46.513Z,100743.22
2022-08-15T05:21:13.825Z,100744.09
2022-08-15T05:23:43.025Z,100755.75
2022-08-15T05:26:53.095Z,100756.41
2022-08-15T05:28:58.534Z,100764.09
2022-08-15T05:31:32.511Z,100769.88
2022-08-15T05:34:01.361Z,100758.22
2022-08-15T05:36:29.753Z,100749.78
2022-08-15T05:39:03.677Z,100740.88
2022-08-15T05:42:12.353Z,100751.78
2022-08-15T05:44:46.097Z,100750.56
2022-08-15T05:47:33.053Z,100752.09
2022-08-15T05:50:38.488Z,100758.84
2022-08-15T05:53:33.001Z,100762.31
2022-08-15T05:56:04.962Z,100761.03
2022-08-15T05:58:46.749Z,100765.56
2022-08-15T06:01:30.352Z,100768.56
2022-08-15T06:04:08.266Z,100771.75
2022-08-15T06:06:51.415Z,100764.19
2022-08-15T06:09:22.366Z,100768.81
2022-08-15T06:11:51.892Z,100769.53
2022-08-15T06:14:35.506Z,100772.59
2022-08-15T06:17:33.274Z,100778.88
2022-08-15T06:20:03.936Z,100766.94
2022-08-15T06:23:15.932Z,100767.09
2022-08-15T06:25:53.801Z,100774.72
2022-08-15T06:28:53.766Z,100775.53
2022-08-15T06:31:39.992Z,100771.50
2022-08-15T06:34:46.933Z,100769.91
2022-08-15T06:37:28.215Z,100767.34
2022-08-15T06:40:27.356Z,100765.47
2022-08-15T06:42:55.576Z,100769.84
2022-08-15T06:45:31.918Z,100766.94
2022-08-15T06:48:54.721Z,100747.69
2022-08-15T06:51:02.373Z,100761.66
2022-08-15T06:53:39.731Z,100757.25
2022-08-15T06:56:29.128Z,100746.44
2022-08-15T06:59:15.087Z,100741.66
2022-08-15T07:02:16.558Z,100750.25
2022-08-15T07:05:11.518Z,100753.97
2022-08-15T07:07:56.376Z,100754.34
2022-08-15T07:10:29.583Z,100755.19
2022-08-15T07:13:02.834Z,100751.53
2022-08-15T07:15:41.626Z,100752.00
2022-08-15T07:18:16.723Z,100750.44
2022-08-15T07:20:43.603Z,100750.53
2022-08-15T07:23:24.799Z,100744.97
2022-08-15T07:25:52.779Z,100756.13
2022-08-15T07:28:29.584Z,100749.38
2022-08-15T07:31:07.221Z,100745.78
2022-08-15T07:33:43.422Z,100747.63
2022-08-15T07:36:14.038Z,100743.47
2022-08-15T07:38:57.203Z,100747.88
2022-08-15T07:41:25.511Z,100748.59
2022-08-15T07:44:21.524Z,100747.25
2022-08-15T07:47:12.798Z,100739.84
2022-08-15T07:49:41.623Z,100740.47
2022-08-15T07:56:38.949Z,100752.50
2022-08-15T07:58:24.537Z,100746.91
2022-08-15T08:01:32.908Z,100740.94
2022-08-15T08:04:06.843Z,100739.84
2022-08-15T08:06:51.038Z,100744.94
2022-08-15T08:09:33.892Z,100750.19
2022-08-15T08:12:30.692Z,100748.16
2022-08-15T08:15:37.382Z,100735.81
2022-08-15T08:18:13.378Z,100732.84
2022-08-15T08:21:03.410Z,100727.22
2022-08-15T08:23:39.712Z,100722.47
2022-08-15T08:26:50.823Z,100719.69
2022-08-15T08:29:34.051Z,100722.53
2022-08-15T08:32:44.570Z,100721.22
2022-08-15T08:35:49.182Z,100722.72
2022-08-15T08:39:04.478Z,100731.66
2022-08-15T08:41:45.323Z,100725.41
2022-08-15T08:44:42.123Z,100723.41
2022-08-15T08:47:31.138Z,100731.16
2022-08-15T08:50:37.477Z,100728.97
2022-08-15T08:53:15.245Z,100716.06
2022-08-15T08:56:33.232Z,100727.41
2022-08-15T08:59:10.502Z,100730.50
2022-08-15T09:01:38.670Z,100726.88
2022-08-15T09:04:13.153Z,100728.88
2022-08-15T09:06:44.469Z,100740.16
2022-08-15T09:09:34.188Z,100716.19
2022-08-15T09:12:42.238Z,100741.47
2022-08-15T09:15:17.088Z,100740.72
2022-08-15T09:17:58.078Z,100726.38
2022-08-15T09:20:34.724Z,100694.03
2022-08-15T09:23:05.270Z,100721.00
2022-08-15T09:25:32.736Z,100719.81
2022-08-15T09:28:29.460Z,100715.50
2022-08-15T09:31:23.449Z,100708.84
2022-08-15T09:33:57.234Z,100709.44
2022-08-15T09:36:38.856Z,100708.81
2022-08-15T09:39:16.152Z,100701.00
2022-08-15T09:42:03.143Z,100698.16
2022-08-15T09:45:45.306Z,100701.84
2022-08-15T09:48:21.798Z,100704.31
2022-08-15T09:51:09.076Z,100700.81
2022-08-15T09:54:01.740Z,100696.09
2022-08-15T09:56:31.866Z,100698.22
2022-08-15T09:59:18.438Z,100681.72
2022-08-15T10:01:56.090Z,100677.72
2022-08-15T10:04:41.597Z,100678.28
2022-08-15T10:07:13.129Z,100669.63
2022-08-15T10:10:00.191Z,100677.88
2022-08-15T10:12:27.511Z,100673.72
2022-08-15T10:14:54.445Z,100684.94
2022-08-15T10:17:27.464Z,100671.97
2022-08-15T10:20:00.898Z,100675.06
2022-08-15T10:22:45.919Z,100663.19
2022-08-15T10:25:17.049Z,100672.59
2022-08-15T10:28:37.486Z,100662.38
2022-08-15T10:31:09.415Z,100667.56
2022-08-15T10:33:41.405Z,100668.47
2022-08-15T10:36:20.666Z,100660.84
2022-08-15T10:39:18.992Z,100662.34
2022-08-15T10:41:53.265Z,100665.38
2022-08-15T10:44:43.805Z,100670.34
2022-08-15T10:47:28.494Z,100661.50
2022-08-15T10:50:04.216Z,100670.41
2022-08-15T10:52:36.902Z,100675.94
2022-08-15T10:55:56.123Z,100669.16
2022-08-15T10:58:30.693Z,100675.53
2022-08-15T11:01:08.924Z,100673.56
2022-08-15T11:04:48.968Z,100667.41
2022-08-15T11:06:41.322Z,100657.13
2022-08-15T11:09:16.504Z,100657.78
2022-08-15T11:11:56.764Z,100658.28
2022-08-15T11:14:30.375Z,100643.03
2022-08-15T11:16:59.318Z,100645.09
2022-08-15T11:20:10.460Z,100641.34
2022-08-15T11:22:59.724Z,100648.09
2022-08-15T11:25:30.552Z,100642.69
2022-08-15T11:28:29.282Z,100635.56
2022-08-15T11:31:12.815Z,100643.09
2022-08-15T11:33:43.304Z,100637.13
2022-08-15T11:36:31.036Z,100634.41
2022-08-15T11:39:14.841Z,100646.53
2022-08-15T11:41:50.089Z,100638.47
2022-08-15T11:44:23.360Z,100638.66
2022-08-15T11:46:50.598Z,100631.06
2022-08-15T11:49:34.312Z,100630.69
2022-08-15T11:52:40.489Z,100624.06
2022-08-15T11:55:13.451Z,100623.34
2022-08-15T11:57:45.658Z,100614.72
2022-08-15T12:00:38.096Z,100616.78
2022-08-15T12:06:33.587Z,100620.72
2022-08-15T12:09:14.174Z,100614.97
2022-08-15T12:11:52.478Z,100620.84
2022-08-15T12:13:11.854Z,100628.56
2022-08-15T12:14:25.104Z,100618.81
2022-08-15T12:17:00.699Z,100621.84
2022-08-15T12:20:27.071Z,100609.19
2022-08-15T12:22:53.117Z,100605.84
2022-08-15T12:25:37.854Z,100599.25
2022-08-15T12:28:34.377Z,100596.13
2022-08-15T12:31:26.017Z,100596.88
2022-08-15T12:34:28.424Z,100584.56
2022-08-15T12:37:07.394Z,100583.50
2022-08-15T12:39:47.299Z,100575.16
2022-08-15T12:42:48.643Z,100562.31
2022-08-15T12:45:13.432Z,100572.44
2022-08-15T12:47:40.905Z,100576.78
2022-08-15T12:50:27.717Z,100583.25
2022-08-15T12:52:57.683Z,100556.56
2022-08-15T12:55:25.029Z,100564.56
2022-08-15T12:58:02.166Z,100562.97
2022-08-15T13:00:35.756Z,100548.09
2022-08-15T13:03:27.875Z,100557.13
2022-08-15T13:06:34.566Z,100563.81
2022-08-15T13:09:05.978Z,100551.31
2022-08-15T13:11:34.991Z,100557.78
2022-08-15T13:14:01.777Z,100556.34
2022-08-15T13:17:06.036Z,100544.28
2022-08-15T13:19:24.349Z,100520.72
2022-08-15T13:22:32.979Z,100534.66
2022-08-15T13:25:01.394Z,100519.41
2022-08-15T13:27:29.276Z,100508.06
2022-08-15T13:29:57.013Z,100509.91
2022-08-15T13:32:25.206Z,100499.84
2022-08-15T13:34:52.892Z,100489.13
2022-08-15T13:37:59.838Z,100488.47
2022-08-15T13:40:19.598Z,100497.63
2022-08-15T13:42:48.263Z,100501.06
2022-08-15T13:45:57.035Z,100498.50
2022-08-15T13:48:16.363Z,100515.47
2022-08-15T13:50:45.240Z,100498.84
2022-08-15T13:53:13.018Z,100499.72
2022-08-15T13:55:42.674Z,100499.28
2022-08-15T13:58:20.080Z,100530.06
2022-08-15T14:00:56.638Z,100535.88
2022-08-15T14:03:32.753Z,100533.69
2022-08-15T14:06:04.166Z,100527.00
2022-08-15T14:09:01.032Z,100537.72
2022-08-15T14:11:30.542Z,100546.94
2022-08-15T14:14:00.325Z,100554.72
2022-08-15T14:16:58.955Z,100556.19
2022-08-15T14:19:39.284Z,100559.16
2022-08-15T14:22:05.700Z,100559.25
2022-08-15T14:24:53.849Z,100569.13
2022-08-15T14:27:41.550Z,100578.09
2022-08-15T14:30:09.986Z,100563.69
2022-08-15T14:32:51.098Z,100571.44
2022-08-15T14:35:20.140Z,100579.75
2022-08-15T14:37:53.038Z,100575.69
2022-08-15T14:40:24.844Z,100570.91
2022-08-15T14:42:58.381Z,100572.28
2022-08-15T14:46:31.136Z,100579.31
2022-08-15T14:48:23.562Z,100563.69
2022-08-15T14:52:00.717Z,100571.84
2022-08-15T14:53:49.100Z,100571.09
2022-08-15T14:56:16.281Z,100566.81
2022-08-15T14:58:50.231Z,100560.69
2022-08-15T15:01:29.280Z,100547.81
2022-08-15T15:03:58.649Z,100548.19
2022-08-15T15:06:29.927Z,100544.97
2022-08-15T15:08:57.607Z,100541.81
2022-08-15T15:11:28.492Z,100546.44
2022-08-15T15:13:55.521Z,100544.56
2022-08-15T15:16:42.162Z,100544.28
2022-08-15T15:19:16.796Z,100549.44
2022-08-15T15:21:44.043Z,100549.72
2022-08-15T15:24:13.637Z,100541.88
2022-08-15T15:26:54.756Z,100551.41
2022-08-15T15:29:24.203Z,100542.13
2022-08-15T15:31:55.587Z,100541.41
2022-08-15T15:34:30.576Z,100537.75
2022-08-15T15:37:04.270Z,100538.31
2022-08-15T15:39:47.056Z,100541.28
2022-08-15T15:42:17.396Z,100534.19
2022-08-15T15:44:46.102Z,100532.84
2022-08-15T15:47:13.137Z,100536.00
2022-08-15T15:49:52.658Z,100518.44
2022-08-15T15:52:22.036Z,100524.66
2022-08-15T15:54:53.932Z,100523.09
2022-08-15T15:57:25.343Z,100529.63
2022-08-15T15:59:59.888Z,100553.91
2022-08-15T16:02:49.779Z,100546.97
2022-08-15T16:06:02.381Z,100562.88
2022-08-15T16:08:32.671Z,100568.13
2022-08-15T16:11:25.179Z,100565.28
2022-08-15T16:13:55.958Z,100574.75
2022-08-15T16:16:29.699Z,100564.44
2022-08-15T16:19:01.921Z,100570.69
2022-08-15T16:22:00.219Z,100589.72
2022-08-15T16:24:50.781Z,100579.81
2022-08-15T16:27:25.501Z,100583.56
2022-08-15T16:30:08.910Z,100563.44
2022-08-15T16:32:47.999Z,100550.75
2022-08-15T16:35:21.013Z,100556.94
2022-08-15T16:37:49.465Z,100560.19
2022-08-15T16:40:25.598Z,100565.63
2022-08-15T16:43:17.177Z,100561.69
2022-08-15T16:46:06.001Z,100571.34
2022-08-15T16:48:38.237Z,100593.69
2022-08-15T16:51:52.944Z,100639.31
2022-08-15T16:54:39.203Z,100685.34
2022-08-15T16:57:13.998Z,100715.78
2022-08-15T16:59:52.594Z,100741.09
2022-08-15T17:03:08.206Z,100662.72
2022-08-15T17:05:26.416Z,100652.69
2022-08-15T17:08:24.420Z,100650.00
2022-08-15T17:11:14.418Z,100655.69
2022-08-15T17:14:03.150Z,100653.03
2022-08-15T17:16:47.391Z,100638.13
2022-08-15T17:19:22.236Z,100656.59
2022-08-15T17:21:54.946Z,100664.81
2022-08-15T17:24:56.032Z,100654.16
2022-08-15T17:28:34.913Z,100641.88
2022-08-15T17:30:57.547Z,100637.75
2022-08-15T17:33:43.450Z,100627.59
2022-08-15T17:36:15.854Z,100617.38
2022-08-15T17:39:03.258Z,100633.31
2022-08-15T17:41:32.053Z,100630.88
2022-08-15T17:44:15.506Z,100640.94
2022-08-15T17:46:45.133Z,100638.13
2022-08-15T17:49:17.953Z,100645.50
2022-08-15T17:51:54.956Z,100641.66
2022-08-15T17:54:24.702Z,100648.44
2022-08-15T17:57:09.345Z,100644.59
2022-08-15T17:59:39.017Z,100647.28
2022-08-15T18:02:30.520Z,100623.03
2022-08-15T18:05:01.268Z,100637.91
2022-08-15T18:07:33.554Z,100628.72
2022-08-15T18:10:45.289Z,100630.59
2022-08-15T18:13:13.951Z,100649.00
2022-08-15T18:16:20.385Z,100648.22
2022-08-15T18:18:58.318Z,100652.13
2022-08-15T18:21:30.279Z,100652.59
2022-08-15T18:23:57.843Z,100644.22
2022-08-15T18:26:50.671Z,100642.94
2022-08-15T18:29:19.807Z,100639.47
2022-08-15T18:32:04.121Z,100643.13
2022-08-15T18:34:53.673Z,100648.84
2022-08-15T18:37:41.698Z,100646.22
2022-08-15T18:40:42.741Z,100657.88
2022-08-15T18:43:11.518Z,100642.56
2022-08-15T18:45:43.635Z,100647.69
2022-08-15T18:48:35.890Z,100668.56
2022-08-15T18:51:09.988Z,100662.63
2022-08-15T18:53:56.345Z,100663.66
2022-08-15T18:56:30.863Z,100645.88
2022-08-15T18:58:59.550Z,100646.47
2022-08-15T19:01:36.792Z,100640.94
2022-08-15T19:04:49.401Z,100648.06
2022-08-15T19:07:13.162Z,100643.56
2022-08-15T19:09:42.477Z,100643.31
2022-08-15T19:12:25.793Z,100634.78
2022-08-15T19:15:08.517Z,100637.03
2022-08-15T19:17:40.045Z,100638.09
2022-08-15T19:20:26.210Z,100656.50
2022-08-15T19:22:56.164Z,100641.56
2022-08-15T19:25:40.558Z,100647.94
2022-08-15T19:28:44.646Z,100649.75
2022-08-15T19:31:52.307Z,100647.75
2022-08-15T19:34:55.863Z,100653.31
2022-08-15T19:37:53.456Z,100658.41
2022-08-15T19:40:52.270Z,100654.16
2022-08-15T19:43:33.834Z,100658.44
2022-08-15T19:46:35.647Z,100669.31
2022-08-15T19:50:05.826Z,100665.06
2022-08-15T19:52:45.473Z,100657.72
2022-08-15T19:55:55.648Z,100652.22
2022-08-15T19:58:36.678Z,100654.06
2022-08-15T20:01:37.383Z,100650.19
2022-08-15T20:04:57.372Z,100656.56
2022-08-15T20:07:44.697Z,100663.09
2022-08-15T20:10:17.934Z,100654.53
2022-08-15T20:12:51.039Z,100660.06
2022-08-15T20:15:41.997Z,100660.06
2022-08-15T20:18:28.871Z,100673.13
2022-08-15T20:21:11.113Z,100665.59
2022-08-15T20:23:42.736Z,100671.13
2022-08-15T20:26:28.526Z,100671.53
2022-08-15T20:29:14.717Z,100679.09
2022-08-15T20:32:02.195Z,100682.53
2022-08-15T20:35:13.420Z,100676.63
2022-08-15T20:37:40.639Z,100684.59
2022-08-15T20:40:23.612Z,100689.53
2022-08-15T20:43:18.834Z,100692.78
2022-08-15T20:45:47.462Z,100688.91
2022-08-15T20:48:44.326Z,100695.03
2022-08-15T20:52:00.850Z,100692.41
2022-08-15T20:54:34.739Z,100698.28
2022-08-15T20:57:07.117Z,100705.28
2022-08-15T20:59:43.603Z,100711.97
2022-08-15T21:02:42.820Z,100710.34
2022-08-15T21:05:10.217Z,100715.25
2022-08-15T21:07:56.357Z,100711.38
2022-08-15T21:10:50.046Z,100707.91
2022-08-15T21:13:25.215Z,100704.03
2022-08-15T21:16:41.018Z,100717.31
2022-08-15T21:19:29.566Z,100725.88
2022-08-15T21:21:57.576Z,100712.41
2022-08-15T21:24:26.819Z,100687.03
2022-08-15T21:26:55.001Z,100713.00
2022-08-15T21:29:25.050Z,100717.09
2022-08-15T21:31:58.393Z,100724.63
2022-08-15T21:34:32.464Z,100716.44
2022-08-15T21:37:11.249Z,100727.50
2022-08-15T21:39:57.005Z,100734.44
2022-08-15T21:42:24.097Z,100731.34
2022-08-15T21:45:10.448Z,100737.47
2022-08-15T21:47:48.127Z,100723.97
2022-08-15T21:50:27.145Z,100729.31
2022-08-15T21:53:00.544Z,100727.25
2022-08-15T21:55:36.225Z,100739.31
2022-08-15T21:58:28.496Z,100729.72
2022-08-15T22:01:11.788Z,100726.66
2022-08-15T22:03:48.294Z,100724.59
2022-08-15T22:06:25.508Z,100727.47
2022-08-15T22:08:55.622Z,100730.34
2022-08-15T22:11:26.544Z,100718.88
2022-08-15T22:13:56.619Z,100725.44
2022-08-15T22:16:37.802Z,100717.44
2022-08-15T22:19:07.167Z,100726.63
2022-08-15T22:21:38.917Z,100716.38
2022-08-15T22:24:07.298Z,100716.19
2022-08-15T22:26:38.350Z,100716.19
2022-08-15T22:29:48.926Z,100718.03
2022-08-15T22:32:31.925Z,100713.09
2022-08-15T22:35:01.133Z,100711.00
2022-08-15T22:37:34.286Z,100713.09
2022-08-15T22:40:11.639Z,100713.47
2022-08-15T22:42:52.474Z,100712.03
2022-08-15T22:45:23.438Z,100689.72
2022-08-15T22:48:18.919Z,100700.94
2022-08-15T22:50:51.817Z,100691.72
2022-08-15T22:53:18.996Z,100717.91
2022-08-15T22:55:45.925Z,100701.75
2022-08-15T22:58:13.508Z,100695.41
2022-08-15T23:00:47.462Z,100705.22
2022-08-15T23:03:14.897Z,100707.00
2022-08-15T23:05:46.014Z,100699.88
2022-08-15T23:08:27.742Z,100703.53
2022-08-15T23:10:59.125Z,100704.34
2022-08-15T23:13:59.993Z,100697.41
2022-08-15T23:16:37.175Z,100707.81
2022-08-15T23:19:30.033Z,100704.97
2022-08-15T23:21:58.379Z,100691.88
2022-08-15T23:24:37.506Z,100704.97
2022-08-15T23:27:05.378Z,100700.03
2022-08-15T23:29:36.729Z,100703.31
2022-08-15T23:32:29.346Z,100704.28
2022-08-15T23:35:03.800Z,100693.00
2022-08-15T23:37:37.101Z,100689.53
2022-08-15T23:40:13.238Z,100690.34
2022-08-15T23:42:54.818Z,100712.63
2022-08-15T23:45:42.773Z,100704.47
2022-08-15T23:48:12.444Z,100697.69
2022-08-15T23:50:42.530Z,100707.31
2022-08-15T23:53:19.464Z,100712.66
2022-08-15T23:55:58.881Z,100715.72
2022-08-15T23:58:36.536Z,100711.22
